• Join FlightAware (Why Join?)
  • Login
  • US Flag 
09:03PM EDT


 

Airport Tracker/Info


-or-


 

Live Flight TrackerFlight Track Log ✈ ASQ5745 ✈ 16-Jul-2013 ✈ KIAD - KALB

Flight Track Log - Related Links

Times and Time Zones

All times are in EDT time to prevent confusion due to time zone crossing. See the ASQ5745 flight status page for this flight to view local times or setup timezone preferences in your user account.

Time Position Orientation Groundspeed Altitude Reporting Facility
EDT Latitude Longitude Course Direction KTS MPH feet Rate Location/Type
08:26AM 38.9667 -77.4500 350° North 176 203 2,000  Level Potomac TRACON
08:28AM 39.1050 -77.4800 350° North 244 281 6,700 2,400 Climbing Washington Center
08:29AM 39.1819 -77.4794 360° North 258 297 9,400 2,340 Climbing Washington Center
08:30AM 39.2614 -77.4761 North 270 311 11,400 1,680 Climbing Washington Center
08:31AM 39.3489 -77.4703 North 295 339 12,800 1,320 Climbing Washington Center
08:32AM 39.4469 -77.4675 North 322 371 14,100 1,320 Climbing Washington Center
08:33AM 39.5450 -77.4619 North 340 391 15,500 1,380 Climbing Washington Center
08:34AM 39.7111 -77.4586 North 367 422 17,700 1,200 Climbing New York Center
08:35AM 39.8114 -77.4547 North 367 422 18,700 1,080 Climbing New York Center
08:36AM 39.9083 -77.4042 22° Northeast 359 413 19,900 600 Climbing New York Center
08:37AM 40.0053 -77.3483 24° Northeast 371 427 20,000 600 Climbing New York Center
08:38AM 40.1064 -77.2928 23° Northeast 384 442 21,200 1,320 Climbing New York Center
08:39AM 40.2117 -77.2347 23° Northeast 384 442 22,700 1,200 Climbing New York Center
08:40AM 40.3064 -77.1811 23° Northeast 378 435 23,700 960 Climbing New York Center
08:41AM 40.4028 -77.1300 22° Northeast 372 428 24,700 960 Climbing New York Center
08:42AM 40.5017 -77.0761 23° Northeast 372 428 25,700 960 Climbing New York Center
08:43AM 40.5981 -77.0250 22° Northeast 372 428 26,700 780 Climbing New York Center
08:44AM 40.6992 -76.9656 24° Northeast 372 428 27,300 540 Climbing New York Center
08:45AM 40.8000 -76.9117 22° Northeast 377 434 27,900 600 Climbing New York Center
08:46AM 40.9031 -76.8525 23° Northeast 390 449 28,500 540 Climbing New York Center
08:47AM 41.0081 -76.7958 22° Northeast 396 456 29,000 240 Climbing New York Center
08:48AM 41.1133 -76.7361 23° Northeast 402 463 29,000  Level New York Center
08:49AM 41.2203 -76.6767 23° Northeast 407 468 29,000  Level New York Center
08:50AM 41.3231 -76.6194 23° Northeast 402 463 29,000  Level New York Center
08:51AM 41.4217 -76.5642 23° Northeast 392 451 29,000 -840 Level New York Center
08:53AM 41.5908 -76.4681 23° Northeast 384 442 26,800 -1,680 Descending Boston Center
08:54AM 41.6908 -76.4106 23° Northeast 384 442 24,500 -1,440 Descending Boston Center
08:55AM 41.7528 -76.3031 52° Northeast 372 428 24,000 -300 Descending Boston Center
08:56AM 41.8050 -76.1836 60° Northeast 355 409 24,000  Level Boston Center
08:57AM 41.8547 -76.0583 62° Northeast 366 421 24,000  Level Boston Center
08:58AM 41.9067 -75.9328 61° Northeast 373 429 24,000  Level Boston Center
08:59AM 41.9561 -75.8128 61° Northeast 373 429 24,000  Level Boston Center
09:00AM 42.0078 -75.6897 61° Northeast 373 429 24,000  Level Boston Center
09:01AM 42.0572 -75.5664 62° Northeast 368 423 24,000  Level Boston Center
09:02AM 42.1064 -75.4458 61° Northeast 362 417 24,000  Level Boston Center
09:03AM 42.1533 -75.3219 63° Northeast 362 417 24,000  Level Boston Center
09:04AM 42.2000 -75.2036 62° Northeast 362 417 24,000 -1,200 Level Boston Center
09:05AM 42.2531 -75.0742 61° Northeast 357 411 21,700 -2,160 Descending Boston Center
09:06AM 42.2994 -74.9553 62° Northeast 357 411 19,700 -1,860 Descending Boston Center
09:07AM 42.3414 -74.8475 62° Northeast 362 417 18,000 -1,800 Descending Boston Center
09:08AM 42.3681 -74.7808 62° Northeast 344 396 17,000 -1,920 Descending Boston Center
09:09AM 42.4317 -74.6172 62° Northeast 330 380 14,300 -1,860 Descending Boston Center
09:10AM 42.4708 -74.5203 61° Northeast 323 372 12,700 -1,740 Descending Boston Center
09:11AM 42.4981 -74.4056 72° East 311 358 11,000 -1,680 Descending Boston Center
09:12AM 42.5186 -74.2992 75° East 295 339 9,200 -1,980 Descending Boston Center
09:13AM 42.5453 -74.1958 71° East 279 321 6,900 -2,160 Descending Boston Center
09:14AM 42.5697 -74.0892 73° East 272 313 4,900 -1,980 Descending Boston Center
09:14AM 42.5697 -74.0892 73° East 270 311 4,900 -1,440 Level Boston Center
09:15AM 42.5897 -73.9997 73° East 260 299 3,500 -780 Descending Boston Center
09:16AM 42.6075 -73.9294 71° East 198 228 3,500 -360 Level Boston Center
09:17AM 42.6272 -73.8511 71° East 208 239 2,800 -840 Descending Boston Center
09:18AM 42.6611 -73.8067 44° Northeast 186 214 1,900 -900 Descending Boston Center